Time;durP1;ratioP1;P1;durP2;ratioP2;P2;SDS_P1;SDS_P2;PMS_P1;PMS_P2;Temp;Humidity;BMP_temperature;BMP_pressure;BME280_temperature;BME280_humidity;BME280_pressure;Samples;Min_cycle;Max_cycle;Signal;HPM_P1;HPM_P2
2023/01/16 00:01:33;;;;;;;15.20;2.30;;;;;;;;;;5040755;28;20034;-74
2023/01/16 00:03:58;;;;;;;11.25;3.03;;;;;;;;;;5035586;28;20116;-72
2023/01/16 00:06:23;;;;;;;19.88;2.85;;;;;;;;;;5038938;28;20039;-73
2023/01/16 00:08:49;;;;;;;18.23;2.28;;;;;;;;;;5043505;28;20060;-72
2023/01/16 00:11:14;;;;;;;11.15;2.33;;;;;;;;;;5044528;28;20518;-73
2023/01/16 00:13:40;;;;;;;9.30;2.17;;;;;;;;;;5045791;28;20033;-73
2023/01/16 00:16:06;;;;;;;14.60;2.72;;;;;;;;;;5044432;28;20029;-73
2023/01/16 00:18:31;;;;;;;16.92;2.85;;;;;;;;;;5046684;28;20520;-73
2023/01/16 00:20:57;;;;;;;16.67;2.72;;;;;;;;;;5045723;28;20053;-72
2023/01/16 00:23:22;;;;;;;12.98;2.05;;;;;;;;;;5045671;28;20033;-73
2023/01/16 00:25:47;;;;;;;28.40;3.45;;;;;;;;;;5051425;28;20037;-73
2023/01/16 00:28:14;;;;;;;10.35;2.53;;;;;;;;;;5048367;28;20044;-73
2023/01/16 00:30:39;;;;;;;22.67;3.25;;;;;;;;;;5045486;28;20028;-72
2023/01/16 00:33:05;;;;;;;7.85;2.03;;;;;;;;;;5041658;28;20397;-72
2023/01/16 00:35:31;;;;;;;13.88;2.28;;;;;;;;;;5049101;28;20033;-73
2023/01/16 00:37:57;;;;;;;30.23;3.10;;;;;;;;;;5038858;28;20068;-73
2023/01/16 00:40:23;;;;;;;19.48;3.30;;;;;;;;;;5045060;28;20464;-73
2023/01/16 00:42:48;;;;;;;16.30;2.00;;;;;;;;;;5043488;28;20490;-72
2023/01/16 00:45:13;;;;;;;19.48;2.65;;;;;;;;;;5046102;28;20061;-73
2023/01/16 00:47:39;;;;;;;15.27;3.45;;;;;;;;;;5042104;28;20041;-73
2023/01/16 00:50:05;;;;;;;14.18;2.15;;;;;;;;;;5042533;28;20045;-72
2023/01/16 00:52:31;;;;;;;12.50;2.58;;;;;;;;;;5046292;28;20083;-73
2023/01/16 00:54:56;;;;;;;18.23;2.25;;;;;;;;;;5042667;28;20139;-72
2023/01/16 00:57:22;;;;;;;11.00;1.77;;;;;;;;;;5037520;28;20064;-74
2023/01/16 00:59:47;;;;;;;10.30;2.28;;;;;;;;;;5053961;28;20028;-72
2023/01/16 01:02:13;;;;;;;10.00;2.20;;;;;;;;;;5046984;28;20040;-73
2023/01/16 01:04:39;;;;;;;19.90;2.15;;;;;;;;;;5054283;28;20039;-72
2023/01/16 01:07:04;;;;;;;9.88;1.85;;;;;;;;;;5046858;28;20432;-73
2023/01/16 01:09:30;;;;;;;13.90;2.65;;;;;;;;;;5051818;28;20452;-73
2023/01/16 01:11:56;;;;;;;12.30;2.42;;;;;;;;;;5054151;28;20382;-72
2023/01/16 01:14:22;;;;;;;9.32;2.28;;;;;;;;;;5037952;28;20021;-73
2023/01/16 01:16:47;;;;;;;14.45;2.38;;;;;;;;;;5037903;28;20152;-73
2023/01/16 01:19:13;;;;;;;12.85;2.83;;;;;;;;;;5044604;28;20075;-73
2023/01/16 01:21:38;;;;;;;21.45;2.45;;;;;;;;;;5039057;28;20029;-73
2023/01/16 01:24:03;;;;;;;12.82;2.30;;;;;;;;;;5043671;28;20033;-73
2023/01/16 01:26:29;;;;;;;14.45;2.67;;;;;;;;;;5045348;28;20033;-73
2023/01/16 01:28:54;;;;;;;8.57;2.15;;;;;;;;;;5043916;28;20385;-72
2023/01/16 01:31:20;;;;;;;11.90;2.55;;;;;;;;;;5044145;28;20044;-74
2023/01/16 01:33:45;;;;;;;13.35;2.53;;;;;;;;;;5039965;28;20488;-73
2023/01/16 01:36:10;;;;;;;13.70;2.33;;;;;;;;;;5037414;28;20036;-73
2023/01/16 01:38:36;;;;;;;10.02;1.80;;;;;;;;;;5036357;28;20453;-72
2023/01/16 01:41:01;;;;;;;17.00;2.15;;;;;;;;;;5030117;28;20538;-73
2023/01/16 01:43:47;;;;;;;9.10;2.35;;;;;;;;;;5043217;28;20036;-73
2023/01/16 01:46:23;;;;;;;9.98;2.55;;;;;;;;;;5039087;28;20044;-75
2023/01/16 01:48:50;;;;;;;10.05;1.90;;;;;;;;;;5051158;28;20039;-72
2023/01/16 01:51:31;;;;;;;9.93;2.13;;;;;;;;;;5038323;28;20517;-73
2023/01/16 01:54:04;;;;;;;6.40;1.85;;;;;;;;;;5039689;28;20033;-73
2023/01/16 01:56:34;;;;;;;21.17;2.17;;;;;;;;;;5042911;28;20060;-72
2023/01/16 01:59:04;;;;;;;12.27;2.17;;;;;;;;;;5031206;28;20052;-73
2023/01/16 02:01:30;;;;;;;14.10;1.95;;;;;;;;;;5029035;28;20045;-72
2023/01/16 02:03:59;;;;;;;9.93;2.17;;;;;;;;;;5047235;28;20060;-72
2023/01/16 02:06:34;;;;;;;21.58;3.10;;;;;;;;;;5047532;28;20021;-73
2023/01/16 02:09:00;;;;;;;8.75;2.30;;;;;;;;;;5050211;28;20040;-72
2023/01/16 02:11:32;;;;;;;11.48;1.88;;;;;;;;;;5042509;28;20376;-73
2023/01/16 02:14:02;;;;;;;12.82;2.88;;;;;;;;;;5034261;28;20556;-72
2023/01/16 02:19:27;;;;;;;11.07;2.33;;;;;;;;;;5049194;28;20102;-73
2023/01/16 02:22:34;;;;;;;19.52;2.17;;;;;;;;;;5046293;28;20112;-73
2023/01/16 02:25:05;;;;;;;15.50;2.63;;;;;;;;;;5035274;28;20056;-72
2023/01/16 02:27:49;;;;;;;19.42;2.45;;;;;;;;;;5047119;28;20083;-72
2023/01/16 02:30:20;;;;;;;12.07;2.30;;;;;;;;;;5045728;28;20547;-73
2023/01/16 02:32:54;;;;;;;16.80;3.05;;;;;;;;;;5043749;28;20477;-73
2023/01/16 02:35:50;;;;;;;16.58;2.25;;;;;;;;;;5039062;28;21025;-73
2023/01/16 02:38:22;;;;;;;13.68;2.20;;;;;;;;;;5033805;28;20041;-73
2023/01/16 02:40:58;;;;;;;17.27;2.97;;;;;;;;;;5037246;28;20041;-72
2023/01/16 02:43:36;;;;;;;21.42;3.38;;;;;;;;;;5037367;28;20043;-73
2023/01/16 02:46:01;;;;;;;18.67;2.72;;;;;;;;;;5031550;28;20044;-73
2023/01/16 02:48:45;;;;;;;20.42;2.92;;;;;;;;;;5040103;28;20124;-73
2023/01/16 02:51:36;;;;;;;18.83;2.42;;;;;;;;;;5034981;28;20049;-73
2023/01/16 02:54:16;;;;;;;10.18;2.22;;;;;;;;;;5044319;28;20048;-73
2023/01/16 02:56:56;;;;;;;30.35;3.67;;;;;;;;;;5020370;28;20044;-73
2023/01/16 02:59:22;;;;;;;18.27;2.70;;;;;;;;;;5042868;28;20048;-73
2023/01/16 03:01:49;;;;;;;13.60;2.15;;;;;;;;;;5041660;28;20063;-73
2023/01/16 03:04:53;;;;;;;17.42;1.85;;;;;;;;;;5046391;28;20094;-75
2023/01/16 03:07:49;;;;;;;14.40;2.38;;;;;;;;;;5049780;28;20057;-73
2023/01/16 03:10:27;;;;;;;8.65;1.95;;;;;;;;;;5022050;28;20057;-74
2023/01/16 03:13:18;;;;;;;19.15;2.60;;;;;;;;;;5033859;28;20045;-73
2023/01/16 03:16:20;;;;;;;9.85;2.28;;;;;;;;;;5043461;28;20021;-73
2023/01/16 03:19:07;;;;;;;22.50;2.83;;;;;;;;;;5037291;28;20041;-73
2023/01/16 03:21:45;;;;;;;9.88;2.15;;;;;;;;;;5035934;28;20079;-72
2023/01/16 03:24:41;;;;;;;8.10;2.35;;;;;;;;;;5038472;28;20112;-73
2023/01/16 03:27:54;;;;;;;15.82;2.75;;;;;;;;;;5034360;28;20017;-73
2023/01/16 03:30:56;;;;;;;12.15;3.13;;;;;;;;;;5049653;28;20049;-73
2023/01/16 03:33:42;;;;;;;12.13;2.15;;;;;;;;;;4931660;29;20031;-73
2023/01/16 03:36:16;;;;;;;25.13;3.20;;;;;;;;;;5030601;28;20060;-72
2023/01/16 03:38:44;;;;;;;12.18;2.97;;;;;;;;;;5049908;28;20025;-72
2023/01/16 03:41:11;;;;;;;19.02;2.75;;;;;;;;;;5043891;28;20036;-73
2023/01/16 03:43:38;;;;;;;28.05;3.08;;;;;;;;;;5036827;28;20029;-72
2023/01/16 03:46:15;;;;;;;17.77;3.17;;;;;;;;;;5036327;28;20029;-72
2023/01/16 03:49:24;;;;;;;17.10;3.10;;;;;;;;;;5048741;28;20037;-73
2023/01/16 03:51:51;;;;;;;17.83;2.67;;;;;;;;;;5034116;28;20068;-73
2023/01/16 03:54:43;;;;;;;15.68;3.38;;;;;;;;;;5045735;28;20048;-73
2023/01/16 03:57:15;;;;;;;10.07;2.97;;;;;;;;;;5026900;28;20029;-72
2023/01/16 03:59:43;;;;;;;9.52;2.30;;;;;;;;;;5049275;28;20496;-73
2023/01/16 04:02:11;;;;;;;21.08;3.28;;;;;;;;;;5036279;28;20034;-73
2023/01/16 04:04:43;;;;;;;16.02;2.55;;;;;;;;;;5042434;28;20390;-72
2023/01/16 04:07:30;;;;;;;18.58;3.60;;;;;;;;;;5045614;28;20048;-73
2023/01/16 04:09:57;;;;;;;13.75;2.72;;;;;;;;;;5045990;28;20091;-73
2023/01/16 04:12:26;;;;;;;15.48;2.83;;;;;;;;;;5042712;28;20164;-73
2023/01/16 04:14:56;;;;;;;22.77;2.90;;;;;;;;;;5033791;28;20037;-73
2023/01/16 04:17:22;;;;;;;13.68;1.85;;;;;;;;;;5035623;28;20036;-72
2023/01/16 04:19:47;;;;;;;7.10;2.00;;;;;;;;;;5035581;28;20060;-73
2023/01/16 04:22:21;;;;;;;16.17;2.08;;;;;;;;;;5038801;28;20071;-72
2023/01/16 04:24:47;;;;;;;6.53;2.45;;;;;;;;;;5040103;28;20481;-72
2023/01/16 04:27:13;;;;;;;13.85;2.35;;;;;;;;;;5040326;28;20042;-72
2023/01/16 04:29:38;;;;;;;8.10;1.55;;;;;;;;;;5034791;28;20025;-73
2023/01/16 04:32:03;;;;;;;10.07;1.85;;;;;;;;;;5045554;28;20523;-72
2023/01/16 04:34:29;;;;;;;9.00;2.08;;;;;;;;;;5039381;28;20067;-73
2023/01/16 04:36:54;;;;;;;5.15;1.63;;;;;;;;;;5038258;28;20030;-74
2023/01/16 04:39:20;;;;;;;9.55;1.60;;;;;;;;;;5037366;28;20021;-73
2023/01/16 04:41:50;;;;;;;2.85;1.30;;;;;;;;;;5045856;28;20044;-73
2023/01/16 04:44:15;;;;;;;8.63;1.52;;;;;;;;;;5039522;28;20025;-72
2023/01/16 04:46:41;;;;;;;7.53;1.45;;;;;;;;;;5034500;28;20033;-75
2023/01/16 04:49:06;;;;;;;7.78;1.58;;;;;;;;;;5037646;28;20041;-72
2023/01/16 04:51:32;;;;;;;8.60;1.40;;;;;;;;;;5039902;28;20057;-73
2023/01/16 04:53:57;;;;;;;9.30;1.75;;;;;;;;;;5041270;28;20047;-72
2023/01/16 04:56:22;;;;;;;5.97;1.13;;;;;;;;;;5045291;28;20026;-73
2023/01/16 04:58:49;;;;;;;2.50;0.90;;;;;;;;;;5054483;28;20040;-73
2023/01/16 05:01:16;;;;;;;2.38;0.90;;;;;;;;;;5042420;28;20508;-73
2023/01/16 05:03:41;;;;;;;4.05;1.00;;;;;;;;;;5045330;28;20481;-74
2023/01/16 05:06:07;;;;;;;2.22;0.93;;;;;;;;;;5040046;28;20150;-73
2023/01/16 05:08:32;;;;;;;4.85;1.25;;;;;;;;;;5036350;28;20068;-72
2023/01/16 05:11:00;;;;;;;4.00;1.08;;;;;;;;;;5049026;28;20094;-73
2023/01/16 05:13:27;;;;;;;1.77;1.00;;;;;;;;;;5037119;28;20496;-73
2023/01/16 05:15:52;;;;;;;7.25;1.23;;;;;;;;;;5038479;28;20124;-72
2023/01/16 05:18:17;;;;;;;3.33;1.00;;;;;;;;;;5041951;28;20561;-72
2023/01/16 05:20:43;;;;;;;8.55;1.50;;;;;;;;;;5049000;28;20029;-72
2023/01/16 05:23:11;;;;;;;5.03;1.30;;;;;;;;;;5048072;28;20483;-73
2023/01/16 05:25:37;;;;;;;4.60;1.27;;;;;;;;;;5049669;28;20045;-73
2023/01/16 05:28:03;;;;;;;6.72;1.10;;;;;;;;;;5041057;28;20029;-72
2023/01/16 05:30:28;;;;;;;4.85;1.10;;;;;;;;;;5045749;28;20400;-72
2023/01/16 05:32:54;;;;;;;4.38;1.42;;;;;;;;;;5036075;28;20099;-73
2023/01/16 05:35:19;;;;;;;3.35;1.17;;;;;;;;;;5042785;28;20116;-73
2023/01/16 05:37:45;;;;;;;1.67;0.95;;;;;;;;;;5037163;28;20029;-73
2023/01/16 05:40:11;;;;;;;10.70;1.25;;;;;;;;;;5037751;28;20033;-73
2023/01/16 05:42:37;;;;;;;5.70;1.13;;;;;;;;;;5040265;28;20037;-72
2023/01/16 05:45:03;;;;;;;4.47;0.95;;;;;;;;;;5038394;28;20378;-72
2023/01/16 05:47:28;;;;;;;4.28;1.20;;;;;;;;;;5037690;28;20041;-73
2023/01/16 05:49:57;;;;;;;1.35;0.60;;;;;;;;;;5037459;28;20051;-72
2023/01/16 05:52:23;;;;;;;3.17;1.40;;;;;;;;;;5040879;28;20021;-73
2023/01/16 05:54:48;;;;;;;1.70;0.65;;;;;;;;;;5038892;28;20037;-72
2023/01/16 05:57:14;;;;;;;3.33;1.00;;;;;;;;;;5041752;28;20116;-73
2023/01/16 05:59:41;;;;;;;3.60;1.00;;;;;;;;;;5041820;28;20397;-72
2023/01/16 06:02:06;;;;;;;10.48;1.10;;;;;;;;;;5037746;28;20041;-72
2023/01/16 06:04:32;;;;;;;11.65;1.20;;;;;;;;;;5039523;28;20030;-72
2023/01/16 06:06:57;;;;;;;6.93;1.02;;;;;;;;;;5038251;28;20057;-72
2023/01/16 06:09:22;;;;;;;2.40;1.10;;;;;;;;;;5047153;28;20064;-73
2023/01/16 06:11:48;;;;;;;4.55;0.90;;;;;;;;;;5047458;28;20492;-73
2023/01/16 06:14:13;;;;;;;1.80;1.00;;;;;;;;;;5050392;28;20037;-73
2023/01/16 06:16:39;;;;;;;1.80;0.93;;;;;;;;;;5044653;28;20089;-73
2023/01/16 06:19:04;;;;;;;1.20;0.80;;;;;;;;;;5044198;28;20419;-72
2023/01/16 06:21:30;;;;;;;0.82;0.60;;;;;;;;;;5040608;28;20029;-73
2023/01/16 06:23:55;;;;;;;2.33;1.02;;;;;;;;;;5043906;28;20469;-73
2023/01/16 06:26:20;;;;;;;1.80;0.90;;;;;;;;;;5042976;28;20033;-74
2023/01/16 06:28:46;;;;;;;0.57;0.40;;;;;;;;;;5042556;28;20037;-73
2023/01/16 06:31:12;;;;;;;2.88;0.65;;;;;;;;;;5048357;28;20044;-72
2023/01/16 06:33:38;;;;;;;2.03;0.82;;;;;;;;;;5050398;28;20469;-73
2023/01/16 06:36:03;;;;;;;2.13;0.75;;;;;;;;;;5044582;28;20029;-72
2023/01/16 06:38:29;;;;;;;1.13;0.60;;;;;;;;;;5038265;28;20045;-73
2023/01/16 06:40:55;;;;;;;1.98;0.70;;;;;;;;;;5042455;28;20024;-72
2023/01/16 06:43:25;;;;;;;1.30;0.70;;;;;;;;;;5044060;28;20384;-74
2023/01/16 06:45:51;;;;;;;1.15;0.57;;;;;;;;;;5034046;28;20048;-72
2023/01/16 06:48:17;;;;;;;1.83;0.80;;;;;;;;;;5046631;28;20389;-73
2023/01/16 06:50:42;;;;;;;1.00;0.70;;;;;;;;;;5047533;28;20053;-73
2023/01/16 06:53:08;;;;;;;1.15;0.70;;;;;;;;;;5039523;28;20041;-72
2023/01/16 06:55:33;;;;;;;1.55;0.60;;;;;;;;;;5047391;28;20468;-72
2023/01/16 06:57:59;;;;;;;1.52;0.70;;;;;;;;;;5044838;28;20126;-72
2023/01/16 07:00:24;;;;;;;1.15;0.55;;;;;;;;;;5043807;28;20030;-73
2023/01/16 07:02:54;;;;;;;1.08;0.60;;;;;;;;;;5037512;28;20108;-72
2023/01/16 07:05:21;;;;;;;3.38;0.68;;;;;;;;;;5041860;28;20127;-73
2023/01/16 07:07:46;;;;;;;1.48;0.88;;;;;;;;;;5045861;28;20040;-74
2023/01/16 07:10:12;;;;;;;1.05;0.63;;;;;;;;;;5052642;28;20024;-73
2023/01/16 07:12:37;;;;;;;1.05;0.63;;;;;;;;;;5038685;28;20473;-72
2023/01/16 07:23:22;;;;;;;0.93;0.60;;;;;;;;;;5036893;28;20087;-72
2023/01/16 07:25:50;;;;;;;1.73;0.80;;;;;;;;;;5041175;28;20079;-73
2023/01/16 07:28:16;;;;;;;0.43;0.40;;;;;;;;;;5039068;28;20029;-72
2023/01/16 07:30:45;;;;;;;0.38;0.30;;;;;;;;;;5043950;28;20374;-72
2023/01/16 07:33:11;;;;;;;0.40;0.40;;;;;;;;;;5034590;28;20044;-73
2023/01/16 07:35:36;;;;;;;1.17;0.60;;;;;;;;;;5044346;28;20025;-72
2023/01/16 07:38:02;;;;;;;2.80;0.43;;;;;;;;;;5042869;28;20120;-72
2023/01/16 07:40:28;;;;;;;2.05;0.60;;;;;;;;;;5045824;28;20053;-72
2023/01/16 07:42:53;;;;;;;1.55;0.45;;;;;;;;;;5043713;28;20111;-73
2023/01/16 07:45:19;;;;;;;1.67;0.50;;;;;;;;;;5048702;28;20043;-72
2023/01/16 07:47:44;;;;;;;0.75;0.50;;;;;;;;;;5040058;28;20072;-73
2023/01/16 07:50:10;;;;;;;0.77;0.50;;;;;;;;;;5038493;28;20358;-72
2023/01/16 07:52:35;;;;;;;2.33;0.60;;;;;;;;;;5036341;28;20037;-72
2023/01/16 07:55:00;;;;;;;0.73;0.50;;;;;;;;;;5044665;28;20042;-72
2023/01/16 07:57:26;;;;;;;0.45;0.40;;;;;;;;;;5039658;28;20037;-73
2023/01/16 07:59:51;;;;;;;0.55;0.45;;;;;;;;;;5033950;28;20042;-73
2023/01/16 08:02:17;;;;;;;0.30;0.30;;;;;;;;;;5045343;28;20401;-73
2023/01/16 08:04:42;;;;;;;1.33;0.60;;;;;;;;;;5050930;28;20036;-73
2023/01/16 08:07:08;;;;;;;0.95;0.40;;;;;;;;;;5045193;28;20469;-72
2023/01/16 08:09:33;;;;;;;3.92;0.50;;;;;;;;;;5051936;28;20412;-73
2023/01/16 08:11:59;;;;;;;0.68;0.60;;;;;;;;;;5046420;28;20507;-73
2023/01/16 08:14:24;;;;;;;0.55;0.32;;;;;;;;;;5044138;28;20033;-73
2023/01/16 08:16:49;;;;;;;1.35;0.50;;;;;;;;;;5039161;28;20094;-73
2023/01/16 08:19:15;;;;;;;1.50;0.52;;;;;;;;;;5033110;28;20068;-72
2023/01/16 08:21:40;;;;;;;0.85;0.63;;;;;;;;;;5036018;28;20136;-72
2023/01/16 08:24:06;;;;;;;5.03;0.73;;;;;;;;;;5033510;28;20073;-72
2023/01/16 08:26:32;;;;;;;1.30;0.60;;;;;;;;;;5039059;28;20419;-73
2023/01/16 08:28:57;;;;;;;1.02;0.40;;;;;;;;;;5041643;28;20056;-72
2023/01/16 08:31:23;;;;;;;2.85;0.80;;;;;;;;;;5040761;28;20044;-73
2023/01/16 08:33:49;;;;;;;0.73;0.50;;;;;;;;;;5034545;28;20029;-72
2023/01/16 08:36:16;;;;;;;0.40;0.40;;;;;;;;;;5049821;28;20499;-73
2023/01/16 08:38:42;;;;;;;1.02;0.60;;;;;;;;;;5039250;28;20034;-73
2023/01/16 08:51:21;;;;;;;0.47;0.43;;;;;;;;;;5043744;28;20028;-72
2023/01/16 08:52:06;;;;;;;1.38;0.52;;;;;;;;;;5047517;28;20055;-72
2023/01/16 08:54:31;;;;;;;1.55;0.63;;;;;;;;;;5045232;28;20052;-73
2023/01/16 08:56:57;;;;;;;0.40;0.40;;;;;;;;;;5049631;28;20041;-73
2023/01/16 08:59:23;;;;;;;0.85;0.50;;;;;;;;;;5055000;28;20109;-72
2023/01/16 09:01:48;;;;;;;1.15;0.60;;;;;;;;;;5042916;28;20044;-75
2023/01/16 09:04:14;;;;;;;1.48;0.60;;;;;;;;;;5037699;28;20045;-72
2023/01/16 09:06:39;;;;;;;1.00;0.70;;;;;;;;;;5050500;28;20500;-73
2023/01/16 09:09:05;;;;;;;0.55;0.55;;;;;;;;;;5051836;28;20036;-73
2023/01/16 09:14:15;;;;;;;1.83;0.60;;;;;;;;;;5049941;28;20140;-73
2023/01/16 09:16:41;;;;;;;0.68;0.50;;;;;;;;;;5049283;28;20115;-73
2023/01/16 09:19:06;;;;;;;1.60;0.70;;;;;;;;;;5048163;28;20064;-73
2023/01/16 09:21:32;;;;;;;1.13;0.52;;;;;;;;;;5053727;28;20028;-73
2023/01/16 09:23:57;;;;;;;4.93;0.93;;;;;;;;;;5041223;28;20159;-73
2023/01/16 09:26:23;;;;;;;0.38;0.30;;;;;;;;;;5046173;28;20032;-73
2023/01/16 09:28:48;;;;;;;1.20;0.52;;;;;;;;;;5042762;28;20036;-73
2023/01/16 09:31:14;;;;;;;2.03;0.60;;;;;;;;;;5037967;28;20037;-74
2023/01/16 09:33:41;;;;;;;2.30;0.80;;;;;;;;;;5040689;28;20435;-73
2023/01/16 09:36:06;;;;;;;0.40;0.40;;;;;;;;;;5045232;28;20388;-73
2023/01/16 09:38:32;;;;;;;1.13;0.57;;;;;;;;;;5047331;28;20048;-73
2023/01/16 09:40:58;;;;;;;3.17;0.60;;;;;;;;;;5043024;28;20025;-73
2023/01/16 09:43:40;;;;;;;0.77;0.50;;;;;;;;;;5043413;28;20370;-73
2023/01/16 09:46:11;;;;;;;3.15;0.52;;;;;;;;;;5038225;28;20044;-73
2023/01/16 09:49:17;;;;;;;1.40;0.60;;;;;;;;;;5048598;28;20037;-73
2023/01/16 09:58:35;;;;;;;0.80;0.40;;;;;;;;;;5033237;28;20044;-73
2023/01/16 10:00:14;;;;;;;0.77;0.50;;;;;;;;;;5050133;28;20048;-73
2023/01/16 10:02:40;;;;;;;0.80;0.50;;;;;;;;;;5040099;28;20049;-73
2023/01/16 10:05:06;;;;;;;2.15;0.70;;;;;;;;;;5046663;28;20619;-72
2023/01/16 10:07:47;;;;;;;2.00;0.70;;;;;;;;;;5045465;28;20029;-73
2023/01/16 10:10:34;;;;;;;1.95;0.40;;;;;;;;;;5044657;28;20044;-73
2023/01/16 10:13:37;;;;;;;2.17;0.52;;;;;;;;;;5041270;28;20040;-73
2023/01/16 10:16:02;;;;;;;1.00;0.40;;;;;;;;;;5039007;28;20439;-73
2023/01/16 10:18:40;;;;;;;1.58;0.57;;;;;;;;;;5050075;28;20036;-73
2023/01/16 10:21:58;;;;;;;0.68;0.40;;;;;;;;;;5041939;28;20052;-74
2023/01/16 10:24:34;;;;;;;0.70;0.30;;;;;;;;;;5005140;28;20045;-73
2023/01/16 10:27:19;;;;;;;0.50;0.38;;;;;;;;;;5026475;28;20542;-74
2023/01/16 10:29:52;;;;;;;0.68;0.40;;;;;;;;;;5040732;28;20051;-73
2023/01/16 10:32:33;;;;;;;0.38;0.30;;;;;;;;;;5037155;28;20116;-73
2023/01/16 10:35:00;;;;;;;2.22;0.40;;;;;;;;;;5027237;28;20028;-73
2023/01/16 10:37:26;;;;;;;0.43;0.38;;;;;;;;;;5050902;28;20481;-73
2023/01/16 10:39:51;;;;;;;2.22;0.43;;;;;;;;;;5033331;28;20034;-74
2023/01/16 10:50:47;;;;;;;;;;;;;;;;;;5049110;28;20103;-73
2023/01/16 10:53:13;;;;;;;0.82;0.30;;;;;;;;;;5076282;28;19913;-73
2023/01/16 10:55:42;;;;;;;1.42;0.60;;;;;;;;;;5046312;28;20124;-73
2023/01/16 10:58:22;;;;;;;2.83;0.65;;;;;;;;;;5042232;28;20025;-73
2023/01/16 11:00:49;;;;;;;5.05;0.73;;;;;;;;;;5034550;28;20121;-74
2023/01/16 11:03:19;;;;;;;2.50;0.68;;;;;;;;;;5026932;28;20030;-74
2023/01/16 11:05:44;;;;;;;6.18;0.60;;;;;;;;;;5036954;28;20033;-73
2023/01/16 11:08:19;;;;;;;4.40;0.50;;;;;;;;;;5046810;28;20435;-74
2023/01/16 11:10:47;;;;;;;2.83;0.60;;;;;;;;;;5049194;28;20040;-73
2023/01/16 11:19:18;;;;;;;5.88;1.02;;;;;;;;;;5036739;28;20084;-74
2023/01/16 11:21:48;;;;;;;2.30;0.63;;;;;;;;;;5047183;28;20025;-73
2023/01/16 11:24:20;;;;;;;5.40;0.85;;;;;;;;;;5041589;28;20048;-73
2023/01/16 11:26:52;;;;;;;3.17;0.50;;;;;;;;;;5036889;28;20120;-73
2023/01/16 11:29:19;;;;;;;3.88;0.90;;;;;;;;;;5033126;28;20052;-73
2023/01/16 11:31:51;;;;;;;2.55;0.85;;;;;;;;;;5030778;28;20385;-73
2023/01/16 11:34:17;;;;;;;2.33;0.65;;;;;;;;;;5030144;28;20040;-73
2023/01/16 11:36:42;;;;;;;2.67;0.70;;;;;;;;;;5043621;28;20124;-74
2023/01/16 11:39:17;;;;;;;3.90;0.60;;;;;;;;;;5048136;28;20381;-73
2023/01/16 11:41:45;;;;;;;2.25;0.60;;;;;;;;;;5047931;28;20042;-73
2023/01/16 11:47:03;;;;;;;2.95;0.70;;;;;;;;;;5018908;28;20520;-74
2023/01/16 11:49:35;;;;;;;3.75;0.90;;;;;;;;;;5039930;28;20028;-79
2023/01/16 11:52:04;;;;;;;2.15;0.77;;;;;;;;;;5031696;28;20033;-73
2023/01/16 11:54:34;;;;;;;1.33;0.40;;;;;;;;;;5031648;28;20036;-73
2023/01/16 11:57:09;;;;;;;0.65;0.38;;;;;;;;;;5046502;28;20091;-72
2023/01/16 11:59:49;;;;;;;1.35;0.50;;;;;;;;;;5041110;28;20040;-74
2023/01/16 12:02:42;;;;;;;5.35;0.65;;;;;;;;;;5040261;28;20053;-73
2023/01/16 12:08:08;;;;;;;0.40;0.40;;;;;;;;;;5036641;28;20080;-73
2023/01/16 12:10:59;;;;;;;3.63;0.57;;;;;;;;;;5029924;28;20041;-73
2023/01/16 12:16:34;;;;;;;3.90;0.75;;;;;;;;;;5023010;28;20069;-73
2023/01/16 12:19:07;;;;;;;3.95;0.57;;;;;;;;;;5045610;28;20051;-73
2023/01/16 12:21:42;;;;;;;11.63;0.63;;;;;;;;;;5043631;28;20041;-73
2023/01/16 12:24:33;;;;;;;1.55;0.40;;;;;;;;;;5036864;28;20037;-73
2023/01/16 12:27:13;;;;;;;3.13;0.40;;;;;;;;;;5045774;28;20067;-73
2023/01/16 12:29:45;;;;;;;0.40;0.30;;;;;;;;;;5031993;28;20106;-73
2023/01/16 12:32:43;;;;;;;1.95;0.30;;;;;;;;;;5046608;28;20040;-73
2023/01/16 12:35:34;;;;;;;1.80;0.77;;;;;;;;;;5036143;28;20497;-73
2023/01/16 12:38:31;;;;;;;2.38;0.57;;;;;;;;;;5020388;28;20114;-74
2023/01/16 12:44:07;;;;;;;5.05;0.80;;;;;;;;;;5051373;28;20049;-73
2023/01/16 12:46:39;;;;;;;1.20;0.47;;;;;;;;;;5041271;28;20037;-73
2023/01/16 12:49:08;;;;;;;4.68;0.77;;;;;;;;;;5046646;28;20420;-72
2023/01/16 12:52:28;;;;;;;1.77;0.70;;;;;;;;;;5037999;28;20508;-73
2023/01/16 12:55:22;;;;;;;1.50;0.55;;;;;;;;;;5041264;28;20041;-73
2023/01/16 12:58:03;;;;;;;3.22;0.57;;;;;;;;;;5034894;28;20037;-72
2023/01/16 13:00:48;;;;;;;1.27;0.40;;;;;;;;;;5042921;28;20477;-73
2023/01/16 13:03:21;;;;;;;3.17;1.20;;;;;;;;;;5040597;28;20049;-73
2023/01/16 13:05:47;;;;;;;1.67;0.60;;;;;;;;;;5047194;28;20036;-73
2023/01/16 13:08:33;;;;;;;2.50;0.50;;;;;;;;;;5042933;28;20374;-73
2023/01/16 13:14:05;;;;;;;4.03;0.80;;;;;;;;;;5035260;28;20048;-76
2023/01/16 13:16:39;;;;;;;0.88;0.50;;;;;;;;;;5035617;28;20076;-73
2023/01/16 13:19:14;;;;;;;1.73;0.47;;;;;;;;;;5045027;28;20051;-74
2023/01/16 13:21:59;;;;;;;1.83;1.02;;;;;;;;;;5031971;28;20507;-73
2023/01/16 13:25:14;;;;;;;0.40;0.40;;;;;;;;;;5037092;28;20037;-76
2023/01/16 13:27:55;;;;;;;0.52;0.52;;;;;;;;;;5041474;28;20493;-74
2023/01/16 13:30:20;;;;;;;1.30;0.60;;;;;;;;;;5042338;28;20052;-74
2023/01/16 13:32:54;;;;;;;3.42;0.88;;;;;;;;;;5031829;28;20385;-72
2023/01/16 13:35:23;;;;;;;3.20;0.95;;;;;;;;;;5035564;28;20049;-74
2023/01/16 13:38:03;;;;;;;2.33;0.63;;;;;;;;;;5050555;28;20528;-72
2023/01/16 13:40:40;;;;;;;1.90;0.75;;;;;;;;;;5037168;28;20158;-72
2023/01/16 13:45:54;;;;;;;0.85;0.40;;;;;;;;;;5034541;28;20520;-73
2023/01/16 13:48:22;;;;;;;2.90;0.80;;;;;;;;;;5039934;28;20492;-73
2023/01/16 13:50:58;;;;;;;4.07;0.52;;;;;;;;;;5033654;28;20046;-73
2023/01/16 13:53:24;;;;;;;2.00;0.80;;;;;;;;;;5046512;28;20038;-73
2023/01/16 13:55:50;;;;;;;2.78;0.45;;;;;;;;;;5036502;28;20052;-73
2023/01/16 13:58:21;;;;;;;0.65;0.50;;;;;;;;;;5043358;28;20048;-73
2023/01/16 14:00:56;;;;;;;5.40;0.70;;;;;;;;;;5039233;28;20052;-73
2023/01/16 14:03:31;;;;;;;3.05;0.70;;;;;;;;;;5034468;28;20041;-74
2023/01/16 14:06:11;;;;;;;6.35;0.60;;;;;;;;;;5031057;28;20044;-73
2023/01/16 14:09:14;;;;;;;2.03;0.65;;;;;;;;;;5045085;28;20041;-73
2023/01/16 14:11:57;;;;;;;1.00;0.32;;;;;;;;;;5031441;28;20072;-72
2023/01/16 14:17:49;;;;;;;0.85;0.30;;;;;;;;;;5044796;28;20051;-73
2023/01/16 14:20:49;;;;;;;0.88;0.45;;;;;;;;;;5049363;28;20064;-73
2023/01/16 14:26:18;;;;;;;1.00;0.50;;;;;;;;;;5038964;28;20052;-74
2023/01/16 14:28:47;;;;;;;0.52;0.28;;;;;;;;;;5048791;28;20037;-73
2023/01/16 14:31:26;;;;;;;0.25;0.25;;;;;;;;;;5052295;28;20041;-73
2023/01/16 14:33:54;;;;;;;1.13;0.40;;;;;;;;;;5022335;28;20127;-72
2023/01/16 14:36:23;;;;;;;1.02;0.40;;;;;;;;;;5037316;28;20045;-73
2023/01/16 14:38:49;;;;;;;0.30;0.30;;;;;;;;;;5037722;28;20072;-72
2023/01/16 14:55:44;;;;;;;0.70;0.40;;;;;;;;;;5037415;28;20059;-73
2023/01/16 14:58:12;;;;;;;0.93;0.50;;;;;;;;;;5045948;28;20029;-73
2023/01/16 15:00:38;;;;;;;0.32;0.30;;;;;;;;;;5046813;28;20048;-72
2023/01/16 15:03:09;;;;;;;2.13;0.68;;;;;;;;;;5042590;28;20484;-72
2023/01/16 15:05:51;;;;;;;2.15;0.65;;;;;;;;;;5048408;28;20476;-73
2023/01/16 15:08:25;;;;;;;0.70;0.45;;;;;;;;;;5039009;28;20032;-73
2023/01/16 15:10:52;;;;;;;2.08;0.77;;;;;;;;;;5042680;28;20065;-72
2023/01/16 15:22:36;;;;;;;1.17;0.60;;;;;;;;;;5031309;28;20099;-73
2023/01/16 15:25:10;;;;;;;0.47;0.40;;;;;;;;;;5038891;28;20051;-73
2023/01/16 15:27:37;;;;;;;0.93;0.50;;;;;;;;;;5045400;28;20039;-75
2023/01/16 15:30:05;;;;;;;0.80;0.60;;;;;;;;;;5045301;28;20026;-72
2023/01/16 15:32:54;;;;;;;0.65;0.45;;;;;;;;;;5038399;28;20550;-73
2023/01/16 15:35:22;;;;;;;4.50;0.55;;;;;;;;;;5033929;28;20080;-73
2023/01/16 15:37:52;;;;;;;1.40;0.50;;;;;;;;;;5043047;28;20657;-73
2023/01/16 15:40:24;;;;;;;1.10;0.30;;;;;;;;;;5040744;28;20105;-74
2023/01/16 15:48:41;;;;;;;1.42;0.50;;;;;;;;;;5034485;28;20132;-72
2023/01/16 15:51:11;;;;;;;1.40;0.70;;;;;;;;;;5036056;28;20073;-72
2023/01/16 15:53:41;;;;;;;2.35;0.77;;;;;;;;;;5037898;28;20042;-73
2023/01/16 15:56:19;;;;;;;3.13;0.77;;;;;;;;;;5036878;28;20034;-72
2023/01/16 15:58:47;;;;;;;2.22;0.60;;;;;;;;;;5026565;28;20045;-76
2023/01/16 16:01:13;;;;;;;7.63;0.77;;;;;;;;;;5034179;28;20527;-72
2023/01/16 16:03:44;;;;;;;0.70;0.52;;;;;;;;;;5031961;28;20037;-73
2023/01/16 16:06:11;;;;;;;2.67;0.90;;;;;;;;;;5033422;28;20476;-73
2023/01/16 16:08:41;;;;;;;3.80;1.38;;;;;;;;;;5040105;28;20072;-73
2023/01/16 16:13:54;;;;;;;5.72;1.20;;;;;;;;;;5038361;28;20156;-72
2023/01/16 16:19:05;;;;;;;3.25;1.23;;;;;;;;;;5041629;28;20094;-73
2023/01/16 16:22:47;;;;;;;1.67;0.70;;;;;;;;;;5033736;28;20469;-73
2023/01/16 16:24:36;;;;;;;4.38;1.75;;;;;;;;;;5031907;28;20045;-72
2023/01/16 16:27:12;;;;;;;6.38;1.30;;;;;;;;;;5034545;28;20396;-74
2023/01/16 16:29:38;;;;;;;5.25;0.85;;;;;;;;;;5042070;28;20068;-74
2023/01/16 16:32:08;;;;;;;3.22;0.70;;;;;;;;;;5037817;28;20068;-73
2023/01/16 16:34:35;;;;;;;3.30;0.90;;;;;;;;;;5037683;28;20053;-73
2023/01/16 16:37:02;;;;;;;5.50;1.15;;;;;;;;;;5048057;28;20455;-76
2023/01/16 16:39:34;;;;;;;4.35;0.60;;;;;;;;;;5044597;28;20426;-75
2023/01/16 16:44:46;;;;;;;0.82;0.50;;;;;;;;;;5041782;28;20420;-75
2023/01/16 16:47:29;;;;;;;0.98;0.63;;;;;;;;;;5048940;28;20112;-74
2023/01/16 16:49:55;;;;;;;5.72;0.90;;;;;;;;;;5026664;28;20412;-74